Back to Top

Language: 

My Weather Underground Personal Weather Station Historical Data with Graphs...

Delerius Weather Station Historical Data
Daily Summary for July 16, 2017 Units:  Metric    English   Both
« Previous Day
Next Day »
Daily Weekly Monthly Yearly Custom
  High: Low: Average:
Temperature: 23.3 °C 13.3 °C 19.1 °C
Dew Point: 16.9 °C 9.7 °C 13.6 °C
Humidity: 91 % 47 % 72 %
Wind Speed: 22.5 km/h 4.8 km/h 13.7 km/h
Wind Gust: 38.6 km/h - -
Wind:- - WNW
Pressure: 1023.6 hPa 1016.8 hPa -
Precipitation: 0 mm    
Historical Graphs
 
 
Tabular Data for July 16, 2017
Time Temperature Dew Point Pressure Wind Wind Speed Wind Gust Humidity Rainfall Rate (Hourly) solar Conditions
00:02 19.4 °C 16.8 °C 1016.8 hPa WSW 19.3 km/h 33.8 km/h 85 % 0 mm 0 W/m2
00:07 19.3 °C 16.7 °C 1016.8 hPa West 19.3 km/h 32.2 km/h 85 % 0 mm 0 W/m2
00:12 19.4 °C 16.8 °C 1017.2 hPa West 19.3 km/h 38.6 km/h 85 % 0 mm 0 W/m2
00:18 19.4 °C 16.8 °C 1017.2 hPa West 19.3 km/h 38.6 km/h 85 % 0 mm 0 W/m2
00:23 19.4 °C 16.8 °C 1017.2 hPa West 17.7 km/h 38.6 km/h 85 % 0 mm 0 W/m2
00:28 19.4 °C 16.8 °C 1017.2 hPa West 20.9 km/h 38.6 km/h 85 % 0 mm 0 W/m2
00:33 19.5 °C 16.9 °C 1017.2 hPa West 22.5 km/h 35.4 km/h 85 % 0 mm 0 W/m2
00:38 19.4 °C 16.8 °C 1017.5 hPa West 19.3 km/h 33.8 km/h 85 % 0 mm 0 W/m2
00:43 19.5 °C 16.9 °C 1017.5 hPa West 17.7 km/h 35.4 km/h 85 % 0 mm 0 W/m2
00:48 19.5 °C 16.9 °C 1017.5 hPa West 17.7 km/h 35.4 km/h 85 % 0 mm 0 W/m2
00:53 19.5 °C 16.7 °C 1017.5 hPa West 17.7 km/h 30.6 km/h 84 % 0 mm 0 W/m2
00:58 19.5 °C 16.9 °C 1017.5 hPa West 17.7 km/h 30.6 km/h 85 % 0 mm 0 W/m2
01:03 19.4 °C 16.8 °C 1017.5 hPa West 17.7 km/h 32.2 km/h 85 % 0 mm 0 W/m2
01:08 19.4 °C 16.8 °C 1017.5 hPa West 19.3 km/h 32.2 km/h 85 % 0 mm 0 W/m2
01:13 19.3 °C 16.7 °C 1017.5 hPa West 16.1 km/h 30.6 km/h 85 % 0 mm 0 W/m2
01:18 19.2 °C 16.6 °C 1017.2 hPa West 17.7 km/h 30.6 km/h 85 % 0 mm 0 W/m2
01:23 19.1 °C 16.7 °C 1017.5 hPa West 16.1 km/h 32.2 km/h 86 % 0 mm 0 W/m2
01:28 19.1 °C 16.7 °C 1017.5 hPa West 17.7 km/h 32.2 km/h 86 % 0 mm 0 W/m2
01:33 19 °C 16.6 °C 1017.5 hPa West 17.7 km/h 32.2 km/h 86 % 0 mm 0 W/m2
01:38 19 °C 16.6 °C 1017.5 hPa West 17.7 km/h 37 km/h 86 % 0 mm 0 W/m2
01:43 19.1 °C 16.7 °C 1017.5 hPa West 17.7 km/h 37 km/h 86 % 0 mm 0 W/m2
01:48 19.1 °C 16.7 °C 1017.5 hPa West 16.1 km/h 30.6 km/h 86 % 0 mm 0 W/m2
01:53 19 °C 16.6 °C 1017.5 hPa West 14.5 km/h 29 km/h 86 % 0 mm 0 W/m2
01:58 19 °C 16.6 °C 1017.8 hPa West 12.9 km/h 29 km/h 86 % 0 mm 0 W/m2
02:03 19 °C 16.6 °C 1017.8 hPa West 12.9 km/h 22.5 km/h 86 % 0 mm 0 W/m2
02:08 18.9 °C 16.5 °C 1017.8 hPa West 11.3 km/h 22.5 km/h 86 % 0 mm 0 W/m2
02:13 18.9 °C 16.5 °C 1017.8 hPa West 12.9 km/h 24.1 km/h 86 % 0 mm 0 W/m2
02:18 18.9 °C 16.5 °C 1017.8 hPa West 12.9 km/h 24.1 km/h 86 % 0 mm 0 W/m2
02:23 18.8 °C 16.4 °C 1017.8 hPa WSW 12.9 km/h 22.5 km/h 86 % 0 mm 0 W/m2
02:28 18.7 °C 16.3 °C 1017.8 hPa West 12.9 km/h 20.9 km/h 86 % 0 mm 0 W/m2
02:33 18.7 °C 16.3 °C 1017.8 hPa West 9.7 km/h 19.3 km/h 86 % 0 mm 0 W/m2
02:38 18.7 °C 16.3 °C 1017.8 hPa West 6.4 km/h 14.5 km/h 86 % 0 mm 0 W/m2
02:43 18.6 °C 16.2 °C 1017.8 hPa WSW 6.4 km/h 11.3 km/h 86 % 0 mm 0 W/m2
02:49 18.6 °C 16.2 °C 1017.8 hPa WSW 6.4 km/h 19.3 km/h 86 % 0 mm 0 W/m2
02:53 18.5 °C 16.1 °C 1017.8 hPa WSW 9.7 km/h 20.9 km/h 86 % 0 mm 0 W/m2
02:58 18.4 °C 16 °C 1017.8 hPa WSW 11.3 km/h 20.9 km/h 86 % 0 mm 0 W/m2
03:04 18.4 °C 16 °C 1017.8 hPa WSW 11.3 km/h 22.5 km/h 86 % 0 mm 0 W/m2
03:09 18.3 °C 16.1 °C 1017.8 hPa West 11.3 km/h 22.5 km/h 87 % 0 mm 0 W/m2
03:13 18.2 °C 16 °C 1017.8 hPa West 11.3 km/h 19.3 km/h 87 % 0 mm 0 W/m2
03:19 18.1 °C 15.9 °C 1017.8 hPa West 9.7 km/h 17.7 km/h 87 % 0 mm 0 W/m2
03:24 18.1 °C 16.1 °C 1017.8 hPa West 8 km/h 14.5 km/h 88 % 0 mm 0 W/m2
03:29 18.1 °C 16.1 °C 1017.8 hPa West 6.4 km/h 12.9 km/h 88 % 0 mm 0 W/m2
03:34 18.1 °C 16.1 °C 1017.8 hPa WSW 6.4 km/h 11.3 km/h 88 % 0 mm 0 W/m2
03:39 18.1 °C 16.1 °C 1017.8 hPa West 4.8 km/h 11.3 km/h 88 % 0 mm 0 W/m2
03:44 18.1 °C 16.1 °C 1018.2 hPa West 4.8 km/h 11.3 km/h 88 % 0 mm 0 W/m2
03:49 18.1 °C 16.1 °C 1018.2 hPa West 4.8 km/h 14.5 km/h 88 % 0 mm 0 W/m2
03:54 18 °C 16 °C 1018.2 hPa WSW 8 km/h 14.5 km/h 88 % 0 mm 0 W/m2
03:59 18 °C 16 °C 1018.2 hPa West 8 km/h 12.9 km/h 88 % 0 mm 0 W/m2
04:04 18 °C 16 °C 1018.2 hPa West 8 km/h 14.5 km/h 88 % 0 mm 0 W/m2
04:09 17.9 °C 15.9 °C 1018.2 hPa West 8 km/h 14.5 km/h 88 % 0 mm 0 W/m2
04:14 17.9 °C 15.9 °C 1018.2 hPa West 9.7 km/h 22.5 km/h 88 % 0 mm 0 W/m2
04:19 17.8 °C 15.9 °C 1018.2 hPa West 11.3 km/h 22.5 km/h 89 % 0 mm 0 W/m2
04:24 17.8 °C 15.9 °C 1018.2 hPa West 11.3 km/h 19.3 km/h 89 % 0 mm 0 W/m2
04:29 17.7 °C 15.9 °C 1018.2 hPa West 11.3 km/h 17.7 km/h 89 % 0 mm 0 W/m2
04:34 17.7 °C 15.9 °C 1018.2 hPa West 11.3 km/h 17.7 km/h 89 % 0 mm 0 W/m2
04:39 17.6 °C 15.9 °C 1018.2 hPa West 11.3 km/h 17.7 km/h 90 % 0 mm 0 W/m2
04:44 17.6 °C 15.9 °C 1018.5 hPa West 9.7 km/h 17.7 km/h 90 % 0 mm 0 W/m2
04:49 17.5 °C 15.8 °C 1018.5 hPa West 9.7 km/h 14.5 km/h 90 % 0 mm 0 W/m2
04:54 17.5 °C 15.8 °C 1018.5 hPa West 11.3 km/h 20.9 km/h 90 % 0 mm 0 W/m2
04:59 17.5 °C 15.8 °C 1018.2 hPa West 12.9 km/h 22.5 km/h 90 % 0 mm 0 W/m2
05:04 17.5 °C 15.8 °C 1018.2 hPa West 12.9 km/h 22.5 km/h 90 % 0 mm 5 W/m2
05:09 17.6 °C 15.9 °C 1018.2 hPa West 12.9 km/h 22.5 km/h 90 % 0 mm 7 W/m2
05:14 17.6 °C 15.9 °C 1018.2 hPa West 14.5 km/h 22.5 km/h 90 % 0 mm 9 W/m2
05:15 17.6 °C 15.9 °C 1018.2 hPa West 12.9 km/h 22.5 km/h 90 % 0 mm 9 W/m2
05:20 17.6 °C 15.9 °C 1018.5 hPa West 12.9 km/h 19.3 km/h 90 % 0 mm 11 W/m2
05:21 17.6 °C 15.9 °C 1018.5 hPa West 12.9 km/h 19.3 km/h 90 % 0 mm 11 W/m2
05:26 17.5 °C 15.8 °C 1018.2 hPa West 12.9 km/h 19.3 km/h 90 % 0 mm 14 W/m2
05:31 17.5 °C 15.8 °C 1018.2 hPa West 11.3 km/h 22.5 km/h 90 % 0 mm 16 W/m2
05:36 17.4 °C 15.7 °C 1018.5 hPa West 11.3 km/h 24.1 km/h 90 % 0 mm 16 W/m2
05:41 17.4 °C 15.7 °C 1018.5 hPa West 11.3 km/h 24.1 km/h 90 % 0 mm 14 W/m2
05:46 17.4 °C 15.7 °C 1018.5 hPa West 12.9 km/h 24.1 km/h 90 % 0 mm 16 W/m2
05:51 17.4 °C 15.7 °C 1018.5 hPa West 14.5 km/h 24.1 km/h 90 % 0 mm 16 W/m2
05:56 17.4 °C 15.7 °C 1018.5 hPa West 12.9 km/h 24.1 km/h 90 % 0 mm 18 W/m2
06:01 17.4 °C 15.7 °C 1018.5 hPa West 11.3 km/h 20.9 km/h 90 % 0 mm 19 W/m2
06:06 17.3 °C 15.7 °C 1018.5 hPa West 9.7 km/h 16.1 km/h 90 % 0 mm 30 W/m2
06:11 17.3 °C 15.8 °C 1018.5 hPa West 11.3 km/h 19.3 km/h 91 % 0 mm 120 W/m2
06:16 17.4 °C 15.9 °C 1018.5 hPa West 11.3 km/h 19.3 km/h 91 % 0 mm 81 W/m2
06:21 17.6 °C 16.1 °C 1018.5 hPa West 11.3 km/h 20.9 km/h 91 % 0 mm 90 W/m2
06:26 17.7 °C 16.1 °C 1018.5 hPa West 12.9 km/h 20.9 km/h 90 % 0 mm 90 W/m2
06:31 17.9 °C 16.2 °C 1018.8 hPa West 14.5 km/h 25.7 km/h 90 % 0 mm 60 W/m2
06:32 17.9 °C 16.2 °C 1018.8 hPa West 16.1 km/h 25.7 km/h 90 % 0 mm 65 W/m2
06:37 18 °C 16.2 °C 1018.8 hPa West 17.7 km/h 25.7 km/h 89 % 0 mm 102 W/m2
06:42 18.2 °C 16.3 °C 1018.8 hPa West 16.1 km/h 25.7 km/h 89 % 0 mm 100 W/m2
06:47 18.3 °C 16.3 °C 1018.8 hPa West 16.1 km/h 29 km/h 88 % 0 mm 121 W/m2
06:52 18.4 °C 16.4 °C 1018.8 hPa West 16.1 km/h 29 km/h 88 % 0 mm 120 W/m2
06:57 18.5 °C 16.5 °C 1018.8 hPa West 14.5 km/h 24.1 km/h 88 % 0 mm 169 W/m2
07:02 18.7 °C 16.5 °C 1019.2 hPa West 12.9 km/h 22.5 km/h 87 % 0 mm 165 W/m2
07:07 18.8 °C 16.6 °C 1019.2 hPa West 12.9 km/h 22.5 km/h 87 % 0 mm 130 W/m2
07:12 18.9 °C 16.3 °C 1019.2 hPa WNW 14.5 km/h 25.7 km/h 85 % 0 mm 128 W/m2
07:17 19 °C 16.2 °C 1019.5 hPa WNW 14.5 km/h 25.7 km/h 84 % 0 mm 109 W/m2
07:22 18.9 °C 16.1 °C 1019.5 hPa WNW 14.5 km/h 25.7 km/h 84 % 0 mm 128 W/m2
07:27 18.8 °C 16.1 °C 1019.5 hPa WNW 16.1 km/h 29 km/h 84 % 0 mm 127 W/m2
07:32 18.7 °C 15.9 °C 1019.5 hPa West 16.1 km/h 29 km/h 84 % 0 mm 141 W/m2
07:37 18.6 °C 16 °C 1019.9 hPa West 14.5 km/h 24.1 km/h 85 % 0 mm 162 W/m2
07:42 18.6 °C 16 °C 1019.9 hPa West 14.5 km/h 24.1 km/h 85 % 0 mm 113 W/m2
07:47 18.4 °C 15.8 °C 1019.5 hPa West 14.5 km/h 24.1 km/h 85 % 0 mm 123 W/m2
07:52 18.3 °C 15.9 °C 1019.5 hPa West 11.3 km/h 22.5 km/h 86 % 0 mm 123 W/m2
07:57 18.3 °C 15.9 °C 1019.5 hPa West 9.7 km/h 17.7 km/h 86 % 0 mm 114 W/m2
08:02 18.2 °C 16 °C 1019.9 hPa WSW 9.7 km/h 14.5 km/h 87 % 0 mm 120 W/m2
08:07 18.2 °C 16 °C 1019.5 hPa WSW 11.3 km/h 17.7 km/h 87 % 0 mm 144 W/m2
08:12 18.2 °C 16 °C 1019.9 hPa WSW 11.3 km/h 17.7 km/h 87 % 0 mm 181 W/m2
08:17 18.3 °C 16.1 °C 1019.9 hPa West 9.7 km/h 16.1 km/h 87 % 0 mm 236 W/m2
08:22 18.5 °C 16.3 °C 1019.9 hPa West 9.7 km/h 14.5 km/h 87 % 0 mm 262 W/m2
08:27 18.7 °C 16.3 °C 1019.9 hPa West 9.7 km/h 19.3 km/h 86 % 0 mm 255 W/m2
08:32 18.8 °C 16.2 °C 1019.9 hPa West 11.3 km/h 19.3 km/h 85 % 0 mm 262 W/m2
08:37 19.1 °C 16.5 °C 1019.9 hPa West 11.3 km/h 17.7 km/h 85 % 0 mm 246 W/m2
08:42 19.2 °C 16.2 °C 1019.9 hPa West 12.9 km/h 20.9 km/h 83 % 0 mm 264 W/m2
08:47 19.2 °C 16.2 °C 1020.2 hPa West 14.5 km/h 24.1 km/h 83 % 0 mm 188 W/m2
08:52 19.2 °C 16.1 °C 1020.2 hPa West 14.5 km/h 25.7 km/h 82 % 0 mm 134 W/m2
08:57 19.2 °C 16.1 °C 1020.2 hPa West 14.5 km/h 25.7 km/h 82 % 0 mm 111 W/m2
09:02 19.1 °C 15.9 °C 1020.2 hPa West 12.9 km/h 25.7 km/h 82 % 0 mm 111 W/m2
09:07 19.1 °C 15.8 °C 1020.5 hPa WNW 14.5 km/h 20.9 km/h 81 % 0 mm 135 W/m2
09:12 19 °C 15.7 °C 1020.5 hPa WNW 14.5 km/h 22.5 km/h 81 % 0 mm 221 W/m2
09:17 18.9 °C 15.8 °C 1020.5 hPa WNW 14.5 km/h 22.5 km/h 82 % 0 mm 316 W/m2
09:22 18.8 °C 15.8 °C 1020.5 hPa WNW 14.5 km/h 22.5 km/h 83 % 0 mm 322 W/m2
09:27 18.7 °C 15.8 °C 1020.5 hPa WNW 14.5 km/h 22.5 km/h 83 % 0 mm 274 W/m2
09:32 18.6 °C 15.7 °C 1020.5 hPa WNW 14.5 km/h 22.5 km/h 83 % 0 mm 243 W/m2
09:37 18.6 °C 15.7 °C 1020.5 hPa WNW 14.5 km/h 22.5 km/h 83 % 0 mm 315 W/m2
09:42 18.6 °C 15.4 °C 1020.5 hPa WNW 14.5 km/h 20.9 km/h 82 % 0 mm 315 W/m2
09:47 18.6 °C 15.4 °C 1020.5 hPa WNW 14.5 km/h 20.9 km/h 82 % 0 mm 271 W/m2
09:52 18.7 °C 15.6 °C 1020.5 hPa WNW 14.5 km/h 24.1 km/h 82 % 0 mm 299 W/m2
09:57 18.7 °C 15.6 °C 1020.9 hPa WNW 14.5 km/h 24.1 km/h 82 % 0 mm 290 W/m2
10:02 18.7 °C 15.2 °C 1020.9 hPa WNW 14.5 km/h 24.1 km/h 80 % 0 mm 301 W/m2
10:07 18.7 °C 15.2 °C 1020.5 hPa West 14.5 km/h 29 km/h 80 % 0 mm 329 W/m2
10:12 18.7 °C 15 °C 1020.9 hPa West 16.1 km/h 29 km/h 79 % 0 mm 390 W/m2
10:17 18.7 °C 14.8 °C 1020.9 hPa West 17.7 km/h 30.6 km/h 78 % 0 mm 350 W/m2
10:22 18.8 °C 15.1 °C 1020.9 hPa West 16.1 km/h 30.6 km/h 79 % 0 mm 387 W/m2
10:27 18.9 °C 15 °C 1020.9 hPa West 16.1 km/h 30.6 km/h 78 % 0 mm 288 W/m2
10:32 19 °C 14.7 °C 1020.9 hPa West 17.7 km/h 32.2 km/h 76 % 0 mm 499 W/m2
10:37 19.3 °C 14.8 °C 1020.9 hPa WNW 19.3 km/h 32.2 km/h 75 % 0 mm 387 W/m2
10:42 19.4 °C 14.4 °C 1021.2 hPa WNW 19.3 km/h 32.2 km/h 73 % 0 mm 362 W/m2
10:47 19.6 °C 14.6 °C 1021.2 hPa WNW 19.3 km/h 32.2 km/h 73 % 0 mm 385 W/m2
10:52 19.7 °C 14.7 °C 1020.9 hPa WNW 14.5 km/h 29 km/h 73 % 0 mm 619 W/m2
10:57 19.8 °C 14.6 °C 1021.2 hPa WNW 14.5 km/h 29 km/h 72 % 0 mm 371 W/m2
11:03 19.7 °C 14.5 °C 1021.2 hPa WNW 16.1 km/h 29 km/h 72 % 0 mm 332 W/m2
11:08 19.6 °C 14.6 °C 1021.2 hPa WNW 16.1 km/h 25.7 km/h 73 % 0 mm 457 W/m2
11:13 19.6 °C 14.4 °C 1021.2 hPa WNW 16.1 km/h 32.2 km/h 72 % 0 mm 615 W/m2
11:18 19.6 °C 14.2 °C 1021.2 hPa WNW 17.7 km/h 32.2 km/h 71 % 0 mm 664 W/m2
11:23 19.6 °C 14.2 °C 1021.2 hPa WNW 17.7 km/h 29 km/h 71 % 0 mm 461 W/m2
11:28 19.7 °C 14.3 °C 1021.2 hPa WNW 16.1 km/h 29 km/h 71 % 0 mm 531 W/m2
11:33 19.8 °C 14.2 °C 1021.2 hPa WNW 17.7 km/h 30.6 km/h 70 % 0 mm 429 W/m2
11:38 20.1 °C 14.2 °C 1021.2 hPa WNW 17.7 km/h 30.6 km/h 69 % 0 mm 589 W/m2
11:43 20.2 °C 14.1 °C 1021.2 hPa West 16.1 km/h 29 km/h 68 % 0 mm 476 W/m2
11:48 20.2 °C 14.1 °C 1021.2 hPa West 16.1 km/h 29 km/h 68 % 0 mm 1100 W/m2
11:53 20.3 °C 14.2 °C 1021.2 hPa West 16.1 km/h 32.2 km/h 68 % 0 mm 304 W/m2
11:58 20.6 °C 14 °C 1021.6 hPa WNW 16.1 km/h 32.2 km/h 66 % 0 mm 912 W/m2
12:03 20.8 °C 13.5 °C 1021.2 hPa WNW 17.7 km/h 32.2 km/h 63 % 0 mm 925 W/m2
12:08 20.9 °C 13.8 °C 1021.2 hPa WNW 17.7 km/h 32.2 km/h 64 % 0 mm 960 W/m2
12:13 21.2 °C 13.9 °C 1021.2 hPa WNW 16.1 km/h 30.6 km/h 63 % 0 mm 889 W/m2
12:18 21.4 °C 13.8 °C 1021.2 hPa WNW 16.1 km/h 29 km/h 62 % 0 mm 891 W/m2
12:23 21.6 °C 13.5 °C 1021.6 hPa WNW 17.7 km/h 33.8 km/h 60 % 0 mm 895 W/m2
12:28 21.4 °C 13.3 °C 1021.6 hPa WNW 19.3 km/h 35.4 km/h 60 % 0 mm 895 W/m2
12:33 21.4 °C 13.3 °C 1021.6 hPa West 20.9 km/h 35.4 km/h 60 % 0 mm 893 W/m2
12:38 21.5 °C 13.4 °C 1021.6 hPa West 19.3 km/h 32.2 km/h 60 % 0 mm 907 W/m2
12:43 21.6 °C 13.5 °C 1021.6 hPa WNW 17.7 km/h 30.6 km/h 60 % 0 mm 898 W/m2
12:48 21.7 °C 13.3 °C 1021.6 hPa WNW 17.7 km/h 30.6 km/h 59 % 0 mm 965 W/m2
12:53 21.8 °C 13.7 °C 1021.6 hPa West 19.3 km/h 30.6 km/h 60 % 0 mm 986 W/m2
12:58 21.8 °C 13.4 °C 1021.6 hPa West 19.3 km/h 32.2 km/h 59 % 0 mm 888 W/m2
13:03 21.9 °C 13.8 °C 1021.6 hPa West 19.3 km/h 32.2 km/h 60 % 0 mm 954 W/m2
13:08 22.1 °C 13.4 °C 1021.6 hPa WNW 17.7 km/h 30.6 km/h 58 % 0 mm 921 W/m2
13:13 22.3 °C 13.9 °C 1021.6 hPa WNW 16.1 km/h 30.6 km/h 59 % 0 mm 900 W/m2
13:18 22.3 °C 13.4 °C 1021.6 hPa WNW 16.1 km/h 25.7 km/h 57 % 0 mm 896 W/m2
13:23 22.3 °C 13.1 °C 1021.6 hPa West 16.1 km/h 25.7 km/h 56 % 0 mm 896 W/m2
13:28 22.2 °C 13 °C 1021.6 hPa West 16.1 km/h 25.7 km/h 56 % 0 mm 891 W/m2
13:33 22.3 °C 13.1 °C 1021.6 hPa WNW 16.1 km/h 25.7 km/h 56 % 0 mm 895 W/m2
13:38 22.3 °C 12.8 °C 1021.6 hPa WNW 16.1 km/h 25.7 km/h 55 % 0 mm 893 W/m2
13:43 22.3 °C 13.1 °C 1021.6 hPa WNW 16.1 km/h 25.7 km/h 56 % 0 mm 896 W/m2
13:48 22.5 °C 13 °C 1021.6 hPa WNW 16.1 km/h 25.7 km/h 55 % 0 mm 891 W/m2
13:53 22.6 °C 13.1 °C 1021.6 hPa WNW 16.1 km/h 29 km/h 55 % 0 mm 889 W/m2
13:58 22.6 °C 12.8 °C 1021.6 hPa WNW 16.1 km/h 32.2 km/h 54 % 0 mm 886 W/m2
14:03 22.7 °C 12.6 °C 1021.6 hPa West 16.1 km/h 32.2 km/h 53 % 0 mm 886 W/m2
14:08 22.7 °C 12.3 °C 1021.6 hPa West 17.7 km/h 30.6 km/h 52 % 0 mm 884 W/m2
14:13 22.7 °C 12.3 °C 1021.6 hPa West 16.1 km/h 30.6 km/h 52 % 0 mm 877 W/m2
14:18 22.9 °C 12.5 °C 1021.6 hPa West 14.5 km/h 29 km/h 52 % 0 mm 870 W/m2
14:23 22.9 °C 12.8 °C 1021.6 hPa WNW 14.5 km/h 29 km/h 53 % 0 mm 868 W/m2
14:28 22.9 °C 12.2 °C 1021.6 hPa WNW 14.5 km/h 32.2 km/h 51 % 0 mm 868 W/m2
14:33 23 °C 12.3 °C 1021.6 hPa WNW 14.5 km/h 32.2 km/h 51 % 0 mm 861 W/m2
14:38 23.1 °C 11.8 °C 1021.6 hPa WNW 14.5 km/h 29 km/h 49 % 0 mm 858 W/m2
14:44 23.1 °C 11.8 °C 1021.6 hPa WNW 14.5 km/h 30.6 km/h 49 % 0 mm 856 W/m2
14:49 23 °C 11.7 °C 1021.6 hPa WNW 16.1 km/h 30.6 km/h 49 % 0 mm 847 W/m2
14:54 22.9 °C 11.3 °C 1021.6 hPa WNW 16.1 km/h 32.2 km/h 48 % 0 mm 842 W/m2
14:59 22.9 °C 11.6 °C 1021.9 hPa West 17.7 km/h 32.2 km/h 49 % 0 mm 838 W/m2
15:04 22.9 °C 11.9 °C 1021.6 hPa West 17.7 km/h 30.6 km/h 50 % 0 mm 828 W/m2
15:09 23.1 °C 11.8 °C 1021.9 hPa WNW 16.1 km/h 30.6 km/h 49 % 0 mm 830 W/m2
15:14 23.1 °C 11.8 °C 1021.9 hPa WNW 14.5 km/h 30.6 km/h 49 % 0 mm 821 W/m2
15:19 23.3 °C 12 °C 1021.9 hPa WNW 14.5 km/h 30.6 km/h 49 % 0 mm 812 W/m2
15:24 23.2 °C 11.3 °C 1021.9 hPa WNW 16.1 km/h 25.7 km/h 47 % 0 mm 803 W/m2
15:29 23.1 °C 11.5 °C 1021.9 hPa WNW 16.1 km/h 30.6 km/h 48 % 0 mm 798 W/m2
15:34 23.1 °C 11.2 °C 1021.9 hPa WNW 14.5 km/h 30.6 km/h 47 % 0 mm 779 W/m2
15:39 23.1 °C 11.2 °C 1021.9 hPa NW 14.5 km/h 29 km/h 47 % 0 mm 798 W/m2
15:44 23.1 °C 11.5 °C 1021.9 hPa WNW 14.5 km/h 29 km/h 48 % 0 mm 784 W/m2
15:49 23.1 °C 11.2 °C 1021.9 hPa WNW 16.1 km/h 29 km/h 47 % 0 mm 714 W/m2
15:54 22.9 °C 11 °C 1021.9 hPa WNW 16.1 km/h 29 km/h 47 % 0 mm 780 W/m2
15:59 23 °C 11.4 °C 1021.9 hPa WNW 14.5 km/h 29 km/h 48 % 0 mm 654 W/m2
16:04 23 °C 11.1 °C 1021.9 hPa WNW 12.9 km/h 25.7 km/h 47 % 0 mm 744 W/m2
16:09 23 °C 11.4 °C 1021.9 hPa WNW 14.5 km/h 29 km/h 48 % 0 mm 758 W/m2
16:14 22.9 °C 11.3 °C 1021.9 hPa WNW 14.5 km/h 29 km/h 48 % 0 mm 708 W/m2
16:19 22.9 °C 11.3 °C 1021.9 hPa NW 14.5 km/h 25.7 km/h 48 % 0 mm 687 W/m2
16:24 22.9 °C 11 °C 1021.9 hPa WNW 14.5 km/h 29 km/h 47 % 0 mm 621 W/m2
16:29 22.9 °C 11.3 °C 1021.9 hPa WNW 14.5 km/h 29 km/h 48 % 0 mm 715 W/m2
16:34 22.7 °C 10.8 °C 1021.9 hPa WNW 16.1 km/h 29 km/h 47 % 0 mm 561 W/m2
16:39 22.6 °C 10.7 °C 1021.9 hPa WNW 17.7 km/h 29 km/h 47 % 0 mm 582 W/m2
16:44 22.5 °C 11.2 °C 1021.9 hPa WNW 16.1 km/h 25.7 km/h 49 % 0 mm 538 W/m2
16:49 22.4 °C 11.4 °C 1021.9 hPa WNW 14.5 km/h 22.5 km/h 50 % 0 mm 527 W/m2
16:54 22.2 °C 11.3 °C 1022.2 hPa WNW 14.5 km/h 29 km/h 50 % 0 mm 443 W/m2
16:59 22.1 °C 11.5 °C 1022.2 hPa WNW 16.1 km/h 29 km/h 51 % 0 mm 494 W/m2
17:05 21.9 °C 11.3 °C 1022.2 hPa WNW 16.1 km/h 29 km/h 51 % 0 mm 571 W/m2
17:10 21.9 °C 11.6 °C 1022.2 hPa WNW 14.5 km/h 29 km/h 52 % 0 mm 686 W/m2
17:15 22 °C 11.4 °C 1022.2 hPa WNW 14.5 km/h 29 km/h 51 % 0 mm 374 W/m2
17:20 22.1 °C 11.2 °C 1022.2 hPa WNW 16.1 km/h 25.7 km/h 50 % 0 mm 506 W/m2
17:25 21.9 °C 11.3 °C 1022.2 hPa WNW 16.1 km/h 25.7 km/h 51 % 0 mm 455 W/m2
17:30 21.6 °C 11 °C 1022.2 hPa West 16.1 km/h 24.1 km/h 51 % 0 mm 269 W/m2
17:35 21.4 °C 11.4 °C 1022.2 hPa West 12.9 km/h 19.3 km/h 53 % 0 mm 315 W/m2
17:40 21.2 °C 11.2 °C 1022.2 hPa West 12.9 km/h 20.9 km/h 53 % 0 mm 362 W/m2
17:45 21.1 °C 11.4 °C 1022.2 hPa WNW 12.9 km/h 22.5 km/h 54 % 0 mm 475 W/m2
17:50 21.2 °C 11.2 °C 1022.2 hPa WNW 12.9 km/h 22.5 km/h 53 % 0 mm 371 W/m2
17:55 21.1 °C 11.2 °C 1022.2 hPa WNW 14.5 km/h 22.5 km/h 53 % 0 mm 253 W/m2
18:00 20.9 °C 10.7 °C 1022.2 hPa WNW 16.1 km/h 25.7 km/h 52 % 0 mm 338 W/m2
18:05 20.9 °C 10.9 °C 1022.2 hPa WNW 14.5 km/h 25.7 km/h 53 % 0 mm 267 W/m2
18:10 20.8 °C 11.2 °C 1022.2 hPa WNW 12.9 km/h 24.1 km/h 54 % 0 mm 206 W/m2
18:15 20.6 °C 10.7 °C 1022.2 hPa NW 12.9 km/h 22.5 km/h 53 % 0 mm 343 W/m2
18:20 20.2 °C 10.3 °C 1022.2 hPa NW 14.5 km/h 29 km/h 53 % 0 mm 197 W/m2
18:25 19.8 °C 10.2 °C 1022.2 hPa NW 14.5 km/h 29 km/h 54 % 0 mm 142 W/m2
18:30 19.5 °C 10.2 °C 1022.6 hPa NW 16.1 km/h 29 km/h 55 % 0 mm 120 W/m2
18:35 19.3 °C 10.3 °C 1022.2 hPa WNW 14.5 km/h 25.7 km/h 56 % 0 mm 111 W/m2
18:40 19.1 °C 10.4 °C 1022.6 hPa WNW 12.9 km/h 25.7 km/h 57 % 0 mm 142 W/m2
18:45 18.9 °C 10.2 °C 1022.6 hPa WNW 12.9 km/h 24.1 km/h 57 % 0 mm 127 W/m2
18:50 18.8 °C 10.1 °C 1022.6 hPa WNW 12.9 km/h 25.7 km/h 57 % 0 mm 192 W/m2
18:56 18.8 °C 10.3 °C 1022.6 hPa WNW 12.9 km/h 25.7 km/h 58 % 0 mm 172 W/m2
19:00 18.8 °C 10.3 °C 1022.6 hPa WNW 11.3 km/h 25.7 km/h 58 % 0 mm 132 W/m2
19:06 18.7 °C 10.3 °C 1022.2 hPa WNW 14.5 km/h 25.7 km/h 58 % 0 mm 111 W/m2
19:11 18.6 °C 10.2 °C 1022.6 hPa WNW 14.5 km/h 25.7 km/h 58 % 0 mm 113 W/m2
19:16 18.5 °C 10.3 °C 1022.6 hPa WNW 11.3 km/h 22.5 km/h 59 % 0 mm 123 W/m2
19:21 18.4 °C 9.7 °C 1022.6 hPa WNW 14.5 km/h 32.2 km/h 57 % 0 mm 137 W/m2
19:26 18.3 °C 9.9 °C 1022.6 hPa WNW 16.1 km/h 32.2 km/h 58 % 0 mm 153 W/m2
19:31 18.3 °C 9.9 °C 1022.6 hPa WNW 12.9 km/h 24.1 km/h 58 % 0 mm 128 W/m2
19:36 18.3 °C 9.9 °C 1022.6 hPa WNW 12.9 km/h 22.5 km/h 58 % 0 mm 127 W/m2
19:41 18.2 °C 9.8 °C 1022.6 hPa WNW 14.5 km/h 22.5 km/h 58 % 0 mm 109 W/m2
19:46 18.1 °C 9.9 °C 1022.6 hPa WNW 12.9 km/h 22.5 km/h 59 % 0 mm 93 W/m2
19:51 18 °C 10.1 °C 1022.6 hPa WNW 11.3 km/h 20.9 km/h 60 % 0 mm 91 W/m2
19:56 17.9 °C 10.3 °C 1022.6 hPa WNW 11.3 km/h 20.9 km/h 61 % 0 mm 90 W/m2
20:01 17.9 °C 10.3 °C 1022.6 hPa WNW 9.7 km/h 20.9 km/h 61 % 0 mm 76 W/m2
20:06 17.8 °C 10.4 °C 1022.6 hPa WNW 11.3 km/h 20.9 km/h 62 % 0 mm 74 W/m2
20:11 17.7 °C 10.3 °C 1022.6 hPa WNW 12.9 km/h 22.5 km/h 62 % 0 mm 67 W/m2
20:16 17.6 °C 10.2 °C 1022.6 hPa WNW 12.9 km/h 22.5 km/h 62 % 0 mm 58 W/m2
20:21 17.4 °C 10.1 °C 1022.9 hPa WNW 12.9 km/h 20.9 km/h 62 % 0 mm 56 W/m2
20:26 17.3 °C 10.2 °C 1022.9 hPa WNW 11.3 km/h 20.9 km/h 63 % 0 mm 53 W/m2
20:31 17.2 °C 10.1 °C 1022.9 hPa WNW 11.3 km/h 22.5 km/h 63 % 0 mm 44 W/m2
20:36 17.2 °C 10.3 °C 1022.9 hPa WNW 11.3 km/h 22.5 km/h 64 % 0 mm 37 W/m2
20:41 17.1 °C 10.2 °C 1022.9 hPa WNW 11.3 km/h 24.1 km/h 64 % 0 mm 32 W/m2
20:46 16.9 °C 10.3 °C 1022.9 hPa WNW 11.3 km/h 24.1 km/h 65 % 0 mm 32 W/m2
20:51 16.8 °C 10.2 °C 1023.2 hPa NW 9.7 km/h 16.1 km/h 65 % 0 mm 30 W/m2
20:56 16.6 °C 10.2 °C 1022.9 hPa NW 9.7 km/h 19.3 km/h 66 % 0 mm 26 W/m2
21:01 16.5 °C 10.1 °C 1022.9 hPa WNW 11.3 km/h 19.3 km/h 66 % 0 mm 21 W/m2
21:06 16.4 °C 10.3 °C 1023.2 hPa WNW 11.3 km/h 19.3 km/h 67 % 0 mm 18 W/m2
21:11 16.3 °C 10.2 °C 1023.2 hPa WNW 9.7 km/h 19.3 km/h 67 % 0 mm 14 W/m2
21:16 16.1 °C 10.2 °C 1023.2 hPa WNW 9.7 km/h 19.3 km/h 68 % 0 mm 12 W/m2
21:21 15.9 °C 10 °C 1023.2 hPa NW 11.3 km/h 19.3 km/h 68 % 0 mm 11 W/m2
21:26 15.8 °C 10.1 °C 1023.2 hPa NW 11.3 km/h 19.3 km/h 69 % 0 mm 7 W/m2
21:31 15.7 °C 10 °C 1023.2 hPa NW 9.7 km/h 17.7 km/h 69 % 0 mm 5 W/m2
21:36 15.6 °C 10.2 °C 1023.2 hPa NW 11.3 km/h 25.7 km/h 70 % 0 mm 0 W/m2
21:41 15.4 °C 9.9 °C 1023.2 hPa WNW 12.9 km/h 25.7 km/h 70 % 0 mm 0 W/m2
21:46 15.4 °C 9.9 °C 1023.2 hPa WNW 14.5 km/h 25.7 km/h 70 % 0 mm 0 W/m2
21:51 15.3 °C 10.1 °C 1023.2 hPa NW 12.9 km/h 25.7 km/h 71 % 0 mm 0 W/m2
21:56 15.2 °C 10 °C 1022.9 hPa WNW 14.5 km/h 22.5 km/h 71 % 0 mm 0 W/m2
22:01 15.1 °C 10.1 °C 1023.2 hPa WNW 16.1 km/h 22.5 km/h 72 % 0 mm 0 W/m2
22:06 15 °C 10 °C 1023.2 hPa WNW 12.9 km/h 20.9 km/h 72 % 0 mm 0 W/m2
22:11 14.9 °C 10.1 °C 1023.2 hPa WNW 12.9 km/h 22.5 km/h 73 % 0 mm 0 W/m2
22:16 14.8 °C 10 °C 1023.2 hPa WNW 11.3 km/h 22.5 km/h 73 % 0 mm 0 W/m2
22:21 14.7 °C 9.9 °C 1023.2 hPa WNW 9.7 km/h 19.3 km/h 73 % 0 mm 0 W/m2
22:27 14.6 °C 10 °C 1023.2 hPa WNW 9.7 km/h 17.7 km/h 74 % 0 mm 0 W/m2
22:32 14.6 °C 10 °C 1023.2 hPa WNW 11.3 km/h 17.7 km/h 74 % 0 mm 0 W/m2
22:37 14.4 °C 9.8 °C 1023.2 hPa WNW 9.7 km/h 16.1 km/h 74 % 0 mm 0 W/m2
22:42 14.3 °C 9.9 °C 1023.2 hPa WNW 8 km/h 12.9 km/h 75 % 0 mm 0 W/m2
22:47 14.3 °C 9.9 °C 1023.2 hPa WNW 8 km/h 12.9 km/h 75 % 0 mm 0 W/m2
22:53 14.2 °C 10 °C 1023.2 hPa WNW 8 km/h 16.1 km/h 76 % 0 mm 0 W/m2
22:58 14.1 °C 9.9 °C 1023.2 hPa WNW 9.7 km/h 20.9 km/h 76 % 0 mm 0 W/m2
23:03 14 °C 9.8 °C 1023.2 hPa WNW 11.3 km/h 20.9 km/h 76 % 0 mm 0 W/m2
23:08 14 °C 10.1 °C 1023.6 hPa WNW 11.3 km/h 19.3 km/h 77 % 0 mm 0 W/m2
23:13 13.9 °C 9.7 °C 1023.6 hPa WNW 11.3 km/h 19.3 km/h 76 % 0 mm 0 W/m2
23:18 13.9 °C 9.9 °C 1023.6 hPa WNW 11.3 km/h 19.3 km/h 77 % 0 mm 0 W/m2
23:23 13.8 °C 9.8 °C 1023.6 hPa WNW 11.3 km/h 16.1 km/h 77 % 0 mm 0 W/m2
23:28 13.8 °C 9.8 °C 1023.6 hPa WNW 9.7 km/h 16.1 km/h 77 % 0 mm 0 W/m2
23:33 13.7 °C 9.7 °C 1023.6 hPa WNW 9.7 km/h 12.9 km/h 77 % 0 mm 0 W/m2
23:38 13.6 °C 9.8 °C 1023.2 hPa WNW 9.7 km/h 12.9 km/h 78 % 0 mm 0 W/m2
23:43 13.6 °C 9.8 °C 1023.2 hPa WNW 9.7 km/h 14.5 km/h 78 % 0 mm 0 W/m2
23:48 13.5 °C 9.7 °C 1023.6 hPa WNW 8 km/h 14.5 km/h 78 % 0 mm 0 W/m2
23:53 13.4 °C 9.7 °C 1023.6 hPa WNW 6.4 km/h 11.3 km/h 78 % 0 mm 0 W/m2
23:58 13.3 °C 9.7 °C 1023.6 hPa WNW 6.4 km/h 9.7 km/h 79 % 0 mm 0 W/m2
Delerius-Weather
Compliments of Weather Underground - 2.25 mb

Data updates at regular intervals.